Plancius — PBQK — position and weather

sailwx.info

Track history (hours):
 
Tides and Currents Weather Stations Pressure Air Temp Water Temp Dewpoint Dewpoint Depression Visibility Wind Speed Wind Dir Waves Ship Positions

Plancius

Last reported at 2019-Oct-17 13:35 UTC. Time now 2019-Oct-23 01:05 UTC.
Position N 27°39' W 016°31'.

Length 90 m; draft 5.2 m.

Type: Passenger vessel. MMSI: 246573000.

Date/timePositionNaut miles runAvg speedWind from/ knotsBaromVisibWave heightAir tempDewpointWater temp
2019-Oct-17 13:35N 27°39' W 016°31'312.5
2019-Oct-17 13:22N 27°42' W 016°30'612.6
2019-Oct-17 12:52N 27°47' W 016°27'2713.0
2019-Oct-17 10:49N 28°10' W 016°12'413.1
2019-Oct-17 10:30N 28°13' W 016°09'613.0
2019-Oct-17 10:00N 28°18' W 016°04'713.1
2019-Oct-17 09:30N 28°23' W 015°59'713.2
2019-Oct-17 09:00N 28°28' W 015°54'713.0
2019-Oct-17 08:30N 28°33' W 015°49'612.7
2019-Oct-17 08:00N 28°39' W 015°45'612.9
2019-Oct-17 07:30N 28°45' W 015°44'712.9
2019-Oct-17 07:00N 28°51' W 015°42'712.9
2019-Oct-17 06:27N 28°58' W 015°40'713.3
2019-Oct-17 05:54N 29°05' W 015°37'  
2019-Oct-12 21:12N 48°59' W 005°35'9711.9
2019-Oct-12 13:01N 49°48' W 003°26'014.8
2019-Oct-12 13:00N 49°48' W 003°26'713.6
2019-Oct-12 12:30N 49°51' W 003°16'713.9
2019-Oct-12 12:00N 49°54' W 003°06'713.6
2019-Oct-12 11:30N 49°57' W 002°57'913.1
2019-Oct-12 10:49N 50°01' W 002°44'2411.6
2019-Oct-12 08:45N 50°07' W 002°09'2 9.8
2019-Oct-12 08:30N 50°08' W 002°05'5 9.4
2019-Oct-12 08:01N 50°09' W 001°58'4 8.8
2019-Oct-12 07:31N 50°10' W 001°51'4 8.7
2019-Oct-12 07:01N 50°11' W 001°45'4 8.5
2019-Oct-12 06:31N 50°12' W 001°38'5 9.0
2019-Oct-12 06:00N 50°13' W 001°31'5 9.5
2019-Oct-12 05:30N 50°15' W 001°24'510.4
2019-Oct-12 05:00N 50°16' W 001°16'7711.4
2019-Oct-11 22:11N 50°38' E 000°40'2 8.6
2019-Oct-11 21:59N 50°39' E 000°42'4 8.5
2019-Oct-11 21:30N 50°42' E 000°48'4 8.4
2019-Oct-11 20:59N 50°44' E 000°53'4 8.3
2019-Oct-11 20:30N 50°46' E 000°58'4 8.1
2019-Oct-11 20:00N 50°49' E 001°04'4 8.4
2019-Oct-11 19:30N 50°51' E 001°09'5 8.7
2019-Oct-11 18:58N 50°54' E 001°15'4 9.0
2019-Oct-11 18:30N 50°57' E 001°20'5 9.5
2019-Oct-11 18:00N 50°60' E 001°26'5 9.6
2019-Oct-11 17:31N 51°03' E 001°31'510.1
2019-Oct-11 17:01N 51°07' E 001°37'5 9.7
2019-Oct-11 16:30N 51°10' E 001°42'5 9.4
2019-Oct-11 16:00N 51°14' E 001°47'4 8.5
2019-Oct-11 15:31N 51°17' E 001°51'4 8.6
2019-Oct-11 15:00N 51°21' E 001°55'4 8.0
2019-Oct-11 14:31N 51°24' E 001°58'4 7.1
2019-Oct-11 14:00N 51°25' E 002°04'510.6
2019-Oct-11 13:30N 51°22' E 002°11'4 9.0
2019-Oct-11 13:00N 51°21' E 002°18'4 8.0
2019-Oct-11 12:30N 51°22' E 002°24'4 8.0
2019-Oct-11 12:00N 51°23' E 002°30'5 9.0
2019-Oct-11 11:26N 51°23' E 002°39'4 7.9
2019-Oct-11 10:59N 51°23' E 002°44'4 9.3
2019-Oct-11 10:30N 51°22' E 002°51'5 9.7
2019-Oct-11 10:00N 51°23' E 002°59'5 9.3
2019-Oct-11 09:30N 51°24' E 003°07'610.3
2019-Oct-11 08:55N 51°25' E 003°16'510.9
2019-Oct-11 08:30N 51°25' E 003°23'611.0
2019-Oct-11 08:00N 51°26' E 003°32'510.5
2019-Oct-11 07:30N 51°27' E 003°40'1 1.4
2019-Oct-11 06:39N 51°28' E 003°42'0 0.0
2019-Oct-11 05:45N 51°28' E 003°42'0 0.0
2019-Oct-11 05:18N 51°28' E 003°42'0 0.0
2019-Oct-11 04:36N 51°28' E 003°42'0 0.0
2019-Oct-11 04:03N 51°28' E 003°42'0 0.0
2019-Oct-11 03:33N 51°28' E 003°42'0 0.0
2019-Oct-11 03:30N 51°28' E 003°42'0 0.0
2019-Oct-11 02:48N 51°28' E 003°42'0 0.0
2019-Oct-11 02:27N 51°28' E 003°42'0 0.0
2019-Oct-11 01:57N 51°28' E 003°42'0 0.0
2019-Oct-11 01:24N 51°28' E 003°42'0 0.0
2019-Oct-11 00:57N 51°28' E 003°42'0 0.0
2019-Oct-11 00:24N 51°28' E 003°42'0 0.0
2019-Oct-11 00:00N 51°28' E 003°42'0 0.0
2019-Oct-10 23:27N 51°28' E 003°42'0 0.0
2019-Oct-10 22:48N 51°28' E 003°42'0 0.0
2019-Oct-10 22:09N 51°28' E 003°42'0 0.0
2019-Oct-10 21:21N 51°28' E 003°42'0 0.0
2019-Oct-10 21:00N 51°28' E 003°42'0 0.0
2019-Oct-10 11:18N 51°28' E 003°42'0 0.0
2019-Oct-10 10:18N 51°28' E 003°42'0 0.0
2019-Oct-10 08:09N 51°28' E 003°42'0 0.0
2019-Oct-10 07:03N 51°28' E 003°42'0 0.0
2019-Oct-10 04:15N 51°28' E 003°42'0 0.0
2019-Oct-10 03:15N 51°28' E 003°42'0 0.0
2019-Oct-10 01:33N 51°28' E 003°42'0 0.0
2019-Oct-09 22:21N 51°28' E 003°42'0 0.0
2019-Oct-09 21:54N 51°28' E 003°42'0 0.0
2019-Oct-09 18:30N 51°28' E 003°42'0 0.0
2019-Oct-09 18:00N 51°28' E 003°42'0 0.0
2019-Oct-09 16:57N 51°28' E 003°42'0 0.0
2019-Oct-09 16:12N 51°28' E 003°42'0 0.0
2019-Oct-09 14:15N 51°28' E 003°42'0 0.0
2019-Oct-09 12:33N 51°28' E 003°42'0 0.0
2019-Oct-09 12:00N 51°28' E 003°42'0 0.0
2019-Oct-09 09:24N 51°28' E 003°42'0 0.0
2019-Oct-09 08:57N 51°28' E 003°42'0 0.0
2019-Oct-09 08:15N 51°28' E 003°42'0 0.0
2019-Oct-09 07:18N 51°28' E 003°42'0 0.0
2019-Oct-09 04:51N 51°28' E 003°42'0 0.0
2019-Oct-09 03:30N 51°28' E 003°42'0 0.0
2019-Oct-09 02:15N 51°28' E 003°42'0 0.0
2019-Oct-09 01:27N 51°28' E 003°42'0 0.0
2019-Oct-09 00:57N 51°28' E 003°42'0 0.0
2019-Oct-09 00:09N 51°28' E 003°42'0 0.0
2019-Oct-08 23:57N 51°28' E 003°42'0 0.0
2019-Oct-08 23:21N 51°28' E 003°42'0 0.0
2019-Oct-08 20:45N 51°28' E 003°42'0 0.0
2019-Oct-08 17:42N 51°28' E 003°42'0 0.0
2019-Oct-08 17:30N 51°28' E 003°42'0 0.0
2019-Oct-08 16:15N 51°28' E 003°42'0 0.0
2019-Oct-08 13:24N 51°28' E 003°42'0 0.0
2019-Oct-08 12:48N 51°28' E 003°42'0 0.0
2019-Oct-08 12:00N 51°28' E 003°42'0 0.0
2019-Oct-08 11:00N 51°28' E 003°42'0 0.0
2019-Oct-08 10:30N 51°28' E 003°42'0 0.0
2019-Oct-08 08:54N 51°28' E 003°42'0 0.0
2019-Oct-08 08:03N 51°28' E 003°42'0 0.0
2019-Oct-08 04:27N 51°28' E 003°42'0 0.0
2019-Oct-08 02:48N 51°28' E 003°42'0 0.0
2019-Oct-08 01:12N 51°28' E 003°42'0 0.0
2019-Oct-07 23:54N 51°28' E 003°42'0 0.0
2019-Oct-07 23:30N 51°28' E 003°42'0 0.0
2019-Oct-07 22:36N 51°28' E 003°42'0 0.0
2019-Oct-07 22:00N 51°28' E 003°42'0 0.0
2019-Oct-07 20:06N 51°28' E 003°42'0 0.0
2019-Oct-07 19:57N 51°28' E 003°42'0 0.0
2019-Oct-07 19:21N 51°28' E 003°42'0 0.0
2019-Oct-07 16:03N 51°28' E 003°42'0 0.0
2019-Oct-07 14:09N 51°28' E 003°42'  
Track history (hours):
 
Tides and Currents Weather Stations Pressure Air Temp Water Temp Dewpoint Dewpoint Depression Visibility Wind Speed Wind Dir Waves Ship Positions

Plancius

Last reported at 2019-Oct-17 13:35 UTC. Time now 2019-Oct-23 01:05 UTC.
Position N 27°39' W 016°31'.

Length 90 m; draft 5.2 m.

Type: Passenger vessel. MMSI: 246573000.

Date/timePositionNaut miles runAvg speedWind from/ knotsBaromVisibWave heightAir tempDewpointWater temp
2019-Oct-17 13:35N 27°39' W 016°31'312.5
2019-Oct-17 13:22N 27°42' W 016°30'612.6
2019-Oct-17 12:52N 27°47' W 016°27'2713.0
2019-Oct-17 10:49N 28°10' W 016°12'413.1
2019-Oct-17 10:30N 28°13' W 016°09'613.0
2019-Oct-17 10:00N 28°18' W 016°04'713.1
2019-Oct-17 09:30N 28°23' W 015°59'713.2
2019-Oct-17 09:00N 28°28' W 015°54'713.0
2019-Oct-17 08:30N 28°33' W 015°49'612.7
2019-Oct-17 08:00N 28°39' W 015°45'612.9
2019-Oct-17 07:30N 28°45' W 015°44'712.9
2019-Oct-17 07:00N 28°51' W 015°42'712.9
2019-Oct-17 06:27N 28°58' W 015°40'713.3
2019-Oct-17 05:54N 29°05' W 015°37'  
2019-Oct-12 21:12N 48°59' W 005°35'9711.9
2019-Oct-12 13:01N 49°48' W 003°26'014.8
2019-Oct-12 13:00N 49°48' W 003°26'713.6
2019-Oct-12 12:30N 49°51' W 003°16'713.9
2019-Oct-12 12:00N 49°54' W 003°06'713.6
2019-Oct-12 11:30N 49°57' W 002°57'913.1
2019-Oct-12 10:49N 50°01' W 002°44'2411.6
2019-Oct-12 08:45N 50°07' W 002°09'2 9.8
2019-Oct-12 08:30N 50°08' W 002°05'5 9.4
2019-Oct-12 08:01N 50°09' W 001°58'4 8.8
2019-Oct-12 07:31N 50°10' W 001°51'4 8.7
2019-Oct-12 07:01N 50°11' W 001°45'4 8.5
2019-Oct-12 06:31N 50°12' W 001°38'5 9.0
2019-Oct-12 06:00N 50°13' W 001°31'5 9.5
2019-Oct-12 05:30N 50°15' W 001°24'510.4
2019-Oct-12 05:00N 50°16' W 001°16'7711.4
2019-Oct-11 22:11N 50°38' E 000°40'2 8.6
2019-Oct-11 21:59N 50°39' E 000°42'4 8.5
2019-Oct-11 21:30N 50°42' E 000°48'4 8.4
2019-Oct-11 20:59N 50°44' E 000°53'4 8.3
2019-Oct-11 20:30N 50°46' E 000°58'4 8.1
2019-Oct-11 20:00N 50°49' E 001°04'4 8.4
2019-Oct-11 19:30N 50°51' E 001°09'5 8.7
2019-Oct-11 18:58N 50°54' E 001°15'4 9.0
2019-Oct-11 18:30N 50°57' E 001°20'5 9.5
2019-Oct-11 18:00N 50°60' E 001°26'5 9.6
2019-Oct-11 17:31N 51°03' E 001°31'510.1
2019-Oct-11 17:01N 51°07' E 001°37'5 9.7
2019-Oct-11 16:30N 51°10' E 001°42'5 9.4
2019-Oct-11 16:00N 51°14' E 001°47'4 8.5
2019-Oct-11 15:31N 51°17' E 001°51'4 8.6
2019-Oct-11 15:00N 51°21' E 001°55'4 8.0
2019-Oct-11 14:31N 51°24' E 001°58'4 7.1
2019-Oct-11 14:00N 51°25' E 002°04'510.6
2019-Oct-11 13:30N 51°22' E 002°11'4 9.0
2019-Oct-11 13:00N 51°21' E 002°18'4 8.0
2019-Oct-11 12:30N 51°22' E 002°24'4 8.0
2019-Oct-11 12:00N 51°23' E 002°30'5 9.0
2019-Oct-11 11:26N 51°23' E 002°39'4 7.9
2019-Oct-11 10:59N 51°23' E 002°44'4 9.3
2019-Oct-11 10:30N 51°22' E 002°51'5 9.7
2019-Oct-11 10:00N 51°23' E 002°59'5 9.3
2019-Oct-11 09:30N 51°24' E 003°07'610.3
2019-Oct-11 08:55N 51°25' E 003°16'510.9
2019-Oct-11 08:30N 51°25' E 003°23'611.0
2019-Oct-11 08:00N 51°26' E 003°32'510.5
2019-Oct-11 07:30N 51°27' E 003°40'1 1.4
2019-Oct-11 06:39N 51°28' E 003°42'0 0.0
2019-Oct-11 05:45N 51°28' E 003°42'0 0.0
2019-Oct-11 05:18N 51°28' E 003°42'0 0.0
2019-Oct-11 04:36N 51°28' E 003°42'0 0.0
2019-Oct-11 04:03N 51°28' E 003°42'0 0.0
2019-Oct-11 03:33N 51°28' E 003°42'0 0.0
2019-Oct-11 03:30N 51°28' E 003°42'0 0.0
2019-Oct-11 02:48N 51°28' E 003°42'0 0.0
2019-Oct-11 02:27N 51°28' E 003°42'0 0.0
2019-Oct-11 01:57N 51°28' E 003°42'0 0.0
2019-Oct-11 01:24N 51°28' E 003°42'0 0.0
2019-Oct-11 00:57N 51°28' E 003°42'0 0.0
2019-Oct-11 00:24N 51°28' E 003°42'0 0.0
2019-Oct-11 00:00N 51°28' E 003°42'0 0.0
2019-Oct-10 23:27N 51°28' E 003°42'0 0.0
2019-Oct-10 22:48N 51°28' E 003°42'0 0.0
2019-Oct-10 22:09N 51°28' E 003°42'0 0.0
2019-Oct-10 21:21N 51°28' E 003°42'0 0.0
2019-Oct-10 21:00N 51°28' E 003°42'0 0.0
2019-Oct-10 11:18N 51°28' E 003°42'0 0.0
2019-Oct-10 10:18N 51°28' E 003°42'0 0.0
2019-Oct-10 08:09N 51°28' E 003°42'0 0.0
2019-Oct-10 07:03N 51°28' E 003°42'0 0.0
2019-Oct-10 04:15N 51°28' E 003°42'0 0.0
2019-Oct-10 03:15N 51°28' E 003°42'0 0.0
2019-Oct-10 01:33N 51°28' E 003°42'0 0.0
2019-Oct-09 22:21N 51°28' E 003°42'0 0.0
2019-Oct-09 21:54N 51°28' E 003°42'0 0.0
2019-Oct-09 18:30N 51°28' E 003°42'0 0.0
2019-Oct-09 18:00N 51°28' E 003°42'0 0.0
2019-Oct-09 16:57N 51°28' E 003°42'0 0.0
2019-Oct-09 16:12N 51°28' E 003°42'0 0.0
2019-Oct-09 14:15N 51°28' E 003°42'0 0.0
2019-Oct-09 12:33N 51°28' E 003°42'0 0.0
2019-Oct-09 12:00N 51°28' E 003°42'0 0.0
2019-Oct-09 09:24N 51°28' E 003°42'0 0.0
2019-Oct-09 08:57N 51°28' E 003°42'0 0.0
2019-Oct-09 08:15N 51°28' E 003°42'0 0.0
2019-Oct-09 07:18N 51°28' E 003°42'0 0.0
2019-Oct-09 04:51N 51°28' E 003°42'0 0.0
2019-Oct-09 03:30N 51°28' E 003°42'0 0.0
2019-Oct-09 02:15N 51°28' E 003°42'0 0.0
2019-Oct-09 01:27N 51°28' E 003°42'0 0.0
2019-Oct-09 00:57N 51°28' E 003°42'0 0.0
2019-Oct-09 00:09N 51°28' E 003°42'0 0.0
2019-Oct-08 23:57N 51°28' E 003°42'0 0.0
2019-Oct-08 23:21N 51°28' E 003°42'0 0.0
2019-Oct-08 20:45N 51°28' E 003°42'0 0.0
2019-Oct-08 17:42N 51°28' E 003°42'0 0.0
2019-Oct-08 17:30N 51°28' E 003°42'0 0.0
2019-Oct-08 16:15N 51°28' E 003°42'0 0.0
2019-Oct-08 13:24N 51°28' E 003°42'0 0.0
2019-Oct-08 12:48N 51°28' E 003°42'0 0.0
2019-Oct-08 12:00N 51°28' E 003°42'0 0.0
2019-Oct-08 11:00N 51°28' E 003°42'0 0.0
2019-Oct-08 10:30N 51°28' E 003°42'0 0.0
2019-Oct-08 08:54N 51°28' E 003°42'0 0.0
2019-Oct-08 08:03N 51°28' E 003°42'0 0.0
2019-Oct-08 04:27N 51°28' E 003°42'0 0.0
2019-Oct-08 02:48N 51°28' E 003°42'0 0.0
2019-Oct-08 01:12N 51°28' E 003°42'0 0.0
2019-Oct-07 23:54N 51°28' E 003°42'0 0.0
2019-Oct-07 23:30N 51°28' E 003°42'0 0.0
2019-Oct-07 22:36N 51°28' E 003°42'0 0.0
2019-Oct-07 22:00N 51°28' E 003°42'0 0.0
2019-Oct-07 20:06N 51°28' E 003°42'0 0.0
2019-Oct-07 19:57N 51°28' E 003°42'0 0.0
2019-Oct-07 19:21N 51°28' E 003°42'0 0.0
2019-Oct-07 16:03N 51°28' E 003°42'0 0.0
2019-Oct-07 14:09N 51°28' E 003°42'  

Dump ship's entire track history